sensor_id;sensor_type;location;lat;lon;timestamp;P1;durP1;ratioP1;P2;durP2;ratioP2
20828;SDS011;10575;50.124;8.582;2023-01-08T00:01:35;14.45;;;8.75;;
20828;SDS011;10575;50.124;8.582;2023-01-08T00:04:01;14.60;;;8.57;;
20828;SDS011;10575;50.124;8.582;2023-01-08T00:06:26;13.50;;;8.20;;
20828;SDS011;10575;50.124;8.582;2023-01-08T00:08:52;11.82;;;7.78;;
20828;SDS011;10575;50.124;8.582;2023-01-08T00:11:17;12.82;;;8.15;;
20828;SDS011;10575;50.124;8.582;2023-01-08T00:13:43;11.95;;;7.22;;
20828;SDS011;10575;50.124;8.582;2023-01-08T00:16:09;11.18;;;7.30;;
20828;SDS011;10575;50.124;8.582;2023-01-08T00:18:36;10.15;;;7.00;;
20828;SDS011;10575;50.124;8.582;2023-01-08T00:21:02;10.60;;;6.72;;
20828;SDS011;10575;50.124;8.582;2023-01-08T00:23:28;12.55;;;6.75;;
20828;SDS011;10575;50.124;8.582;2023-01-08T00:25:54;11.68;;;6.57;;
20828;SDS011;10575;50.124;8.582;2023-01-08T00:28:20;12.38;;;6.57;;
20828;SDS011;10575;50.124;8.582;2023-01-08T00:30:46;10.68;;;6.03;;
20828;SDS011;10575;50.124;8.582;2023-01-08T00:33:12;9.90;;;6.25;;
20828;SDS011;10575;50.124;8.582;2023-01-08T00:35:37;9.05;;;5.80;;
20828;SDS011;10575;50.124;8.582;2023-01-08T00:38:03;9.48;;;5.60;;
20828;SDS011;10575;50.124;8.582;2023-01-08T00:40:29;9.35;;;5.80;;
20828;SDS011;10575;50.124;8.582;2023-01-08T00:42:55;8.77;;;6.00;;
20828;SDS011;10575;50.124;8.582;2023-01-08T00:45:20;8.48;;;5.85;;
20828;SDS011;10575;50.124;8.582;2023-01-08T00:47:46;9.30;;;5.65;;
20828;SDS011;10575;50.124;8.582;2023-01-08T00:50:11;10.25;;;5.90;;
20828;SDS011;10575;50.124;8.582;2023-01-08T00:52:37;7.30;;;5.03;;
20828;SDS011;10575;50.124;8.582;2023-01-08T00:55:03;9.57;;;6.00;;
20828;SDS011;10575;50.124;8.582;2023-01-08T00:57:35;8.85;;;5.25;;
20828;SDS011;10575;50.124;8.582;2023-01-08T01:00:03;8.18;;;5.30;;
20828;SDS011;10575;50.124;8.582;2023-01-08T01:02:30;8.35;;;5.70;;
20828;SDS011;10575;50.124;8.582;2023-01-08T01:04:56;9.45;;;5.68;;
20828;SDS011;10575;50.124;8.582;2023-01-08T01:07:21;8.90;;;5.57;;
20828;SDS011;10575;50.124;8.582;2023-01-08T01:09:47;8.80;;;5.18;;
20828;SDS011;10575;50.124;8.582;2023-01-08T01:12:12;8.07;;;5.45;;
20828;SDS011;10575;50.124;8.582;2023-01-08T01:14:38;10.30;;;5.93;;
20828;SDS011;10575;50.124;8.582;2023-01-08T01:17:03;8.30;;;5.50;;
20828;SDS011;10575;50.124;8.582;2023-01-08T01:19:29;11.23;;;5.38;;
20828;SDS011;10575;50.124;8.582;2023-01-08T01:21:54;8.20;;;5.47;;
20828;SDS011;10575;50.124;8.582;2023-01-08T01:24:20;8.75;;;4.68;;
20828;SDS011;10575;50.124;8.582;2023-01-08T01:26:49;7.28;;;4.82;;
20828;SDS011;10575;50.124;8.582;2023-01-08T01:29:15;7.28;;;5.32;;
20828;SDS011;10575;50.124;8.582;2023-01-08T01:31:41;7.63;;;5.15;;
20828;SDS011;10575;50.124;8.582;2023-01-08T01:34:06;10.65;;;5.93;;
20828;SDS011;10575;50.124;8.582;2023-01-08T01:36:33;8.40;;;5.70;;
20828;SDS011;10575;50.124;8.582;2023-01-08T01:38:59;9.98;;;6.40;;
20828;SDS011;10575;50.124;8.582;2023-01-08T01:41:26;9.63;;;5.80;;
20828;SDS011;10575;50.124;8.582;2023-01-08T01:43:52;8.85;;;5.40;;
20828;SDS011;10575;50.124;8.582;2023-01-08T01:48:48;8.40;;;5.20;;
20828;SDS011;10575;50.124;8.582;2023-01-08T01:51:17;6.85;;;4.85;;
20828;SDS011;10575;50.124;8.582;2023-01-08T01:53:43;7.82;;;5.07;;
20828;SDS011;10575;50.124;8.582;2023-01-08T01:56:09;8.02;;;5.50;;
20828;SDS011;10575;50.124;8.582;2023-01-08T01:58:35;8.38;;;5.43;;
20828;SDS011;10575;50.124;8.582;2023-01-08T02:01:02;9.02;;;5.65;;
20828;SDS011;10575;50.124;8.582;2023-01-08T02:03:31;7.82;;;5.55;;
20828;SDS011;10575;50.124;8.582;2023-01-08T02:06:12;9.10;;;5.95;;
20828;SDS011;10575;50.124;8.582;2023-01-08T02:13:54;10.13;;;6.05;;
20828;SDS011;10575;50.124;8.582;2023-01-08T02:16:38;9.25;;;5.82;;
20828;SDS011;10575;50.124;8.582;2023-01-08T02:22:22;9.25;;;5.45;;
20828;SDS011;10575;50.124;8.582;2023-01-08T02:25:28;10.48;;;6.20;;
20828;SDS011;10575;50.124;8.582;2023-01-08T02:28:10;8.63;;;5.65;;
20828;SDS011;10575;50.124;8.582;2023-01-08T02:30:39;8.50;;;5.45;;
20828;SDS011;10575;50.124;8.582;2023-01-08T02:33:05;9.25;;;6.00;;
20828;SDS011;10575;50.124;8.582;2023-01-08T02:35:39;7.57;;;5.32;;
20828;SDS011;10575;50.124;8.582;2023-01-08T02:38:19;8.20;;;5.55;;
20828;SDS011;10575;50.124;8.582;2023-01-08T02:41:02;10.80;;;6.00;;
20828;SDS011;10575;50.124;8.582;2023-01-08T02:43:37;9.55;;;6.13;;
20828;SDS011;10575;50.124;8.582;2023-01-08T02:46:12;10.32;;;5.75;;
20828;SDS011;10575;50.124;8.582;2023-01-08T02:48:44;11.63;;;6.28;;
20828;SDS011;10575;50.124;8.582;2023-01-08T02:51:13;12.65;;;6.25;;
20828;SDS011;10575;50.124;8.582;2023-01-08T02:53:49;9.60;;;6.43;;
20828;SDS011;10575;50.124;8.582;2023-01-08T02:56:19;10.43;;;6.32;;
20828;SDS011;10575;50.124;8.582;2023-01-08T02:58:48;11.32;;;6.80;;
20828;SDS011;10575;50.124;8.582;2023-01-08T03:01:16;10.30;;;6.63;;
20828;SDS011;10575;50.124;8.582;2023-01-08T03:03:43;11.30;;;6.45;;
20828;SDS011;10575;50.124;8.582;2023-01-08T03:06:13;9.93;;;6.40;;
20828;SDS011;10575;50.124;8.582;2023-01-08T03:08:43;13.20;;;6.65;;
20828;SDS011;10575;50.124;8.582;2023-01-08T03:11:13;9.82;;;6.60;;
20828;SDS011;10575;50.124;8.582;2023-01-08T03:13:53;13.00;;;7.07;;
20828;SDS011;10575;50.124;8.582;2023-01-08T03:16:24;12.07;;;6.65;;
20828;SDS011;10575;50.124;8.582;2023-01-08T03:19:11;11.23;;;6.72;;
20828;SDS011;10575;50.124;8.582;2023-01-08T03:21:40;11.18;;;7.07;;
20828;SDS011;10575;50.124;8.582;2023-01-08T03:24:07;10.77;;;6.57;;
20828;SDS011;10575;50.124;8.582;2023-01-08T03:26:36;12.23;;;7.75;;
20828;SDS011;10575;50.124;8.582;2023-01-08T03:29:03;12.73;;;7.25;;
20828;SDS011;10575;50.124;8.582;2023-01-08T03:31:32;11.45;;;7.18;;
20828;SDS011;10575;50.124;8.582;2023-01-08T03:33:59;12.90;;;8.25;;
20828;SDS011;10575;50.124;8.582;2023-01-08T03:36:27;12.80;;;8.02;;
20828;SDS011;10575;50.124;8.582;2023-01-08T03:39:29;13.90;;;8.45;;
20828;SDS011;10575;50.124;8.582;2023-01-08T03:41:58;11.88;;;7.50;;
20828;SDS011;10575;50.124;8.582;2023-01-08T03:44:26;13.88;;;8.38;;
20828;SDS011;10575;50.124;8.582;2023-01-08T03:46:53;12.55;;;7.75;;
20828;SDS011;10575;50.124;8.582;2023-01-08T03:49:21;12.68;;;7.70;;
20828;SDS011;10575;50.124;8.582;2023-01-08T03:51:48;12.32;;;7.68;;
20828;SDS011;10575;50.124;8.582;2023-01-08T03:54:14;17.42;;;8.18;;
20828;SDS011;10575;50.124;8.582;2023-01-08T03:56:42;12.00;;;8.23;;
20828;SDS011;10575;50.124;8.582;2023-01-08T03:59:09;12.07;;;8.75;;
20828;SDS011;10575;50.124;8.582;2023-01-08T04:01:35;12.32;;;8.70;;
20828;SDS011;10575;50.124;8.582;2023-01-08T04:04:01;16.98;;;8.50;;
20828;SDS011;10575;50.124;8.582;2023-01-08T04:06:26;13.65;;;7.72;;
20828;SDS011;10575;50.124;8.582;2023-01-08T04:08:52;11.93;;;7.53;;
20828;SDS011;10575;50.124;8.582;2023-01-08T04:11:17;12.30;;;7.72;;
20828;SDS011;10575;50.124;8.582;2023-01-08T04:13:43;13.80;;;8.05;;
20828;SDS011;10575;50.124;8.582;2023-01-08T04:16:09;13.35;;;8.05;;
20828;SDS011;10575;50.124;8.582;2023-01-08T04:18:34;13.77;;;8.45;;
20828;SDS011;10575;50.124;8.582;2023-01-08T04:21:00;12.38;;;8.32;;
20828;SDS011;10575;50.124;8.582;2023-01-08T04:23:25;14.50;;;8.25;;
20828;SDS011;10575;50.124;8.582;2023-01-08T04:25:51;13.75;;;8.20;;
20828;SDS011;10575;50.124;8.582;2023-01-08T04:28:17;12.27;;;8.30;;
20828;SDS011;10575;50.124;8.582;2023-01-08T04:30:43;12.45;;;8.40;;
20828;SDS011;10575;50.124;8.582;2023-01-08T04:33:08;12.90;;;7.43;;
20828;SDS011;10575;50.124;8.582;2023-01-08T04:35:34;12.23;;;8.10;;
20828;SDS011;10575;50.124;8.582;2023-01-08T04:38:00;14.00;;;8.18;;
20828;SDS011;10575;50.124;8.582;2023-01-08T04:40:25;12.95;;;8.70;;
20828;SDS011;10575;50.124;8.582;2023-01-08T04:42:51;13.77;;;7.90;;
20828;SDS011;10575;50.124;8.582;2023-01-08T04:45:16;13.18;;;8.00;;
20828;SDS011;10575;50.124;8.582;2023-01-08T04:47:42;11.70;;;7.65;;
20828;SDS011;10575;50.124;8.582;2023-01-08T04:50:08;14.38;;;7.32;;
20828;SDS011;10575;50.124;8.582;2023-01-08T04:52:34;11.75;;;7.97;;
20828;SDS011;10575;50.124;8.582;2023-01-08T04:54:59;10.77;;;7.10;;
20828;SDS011;10575;50.124;8.582;2023-01-08T04:57:25;13.13;;;8.13;;
20828;SDS011;10575;50.124;8.582;2023-01-08T04:59:50;13.65;;;7.95;;
20828;SDS011;10575;50.124;8.582;2023-01-08T05:02:16;13.73;;;7.82;;
20828;SDS011;10575;50.124;8.582;2023-01-08T05:04:41;11.77;;;7.80;;
20828;SDS011;10575;50.124;8.582;2023-01-08T05:07:07;13.73;;;7.63;;
20828;SDS011;10575;50.124;8.582;2023-01-08T05:09:32;11.25;;;7.70;;
20828;SDS011;10575;50.124;8.582;2023-01-08T05:11:58;12.00;;;7.00;;
20828;SDS011;10575;50.124;8.582;2023-01-08T05:14:23;13.35;;;7.80;;
20828;SDS011;10575;50.124;8.582;2023-01-08T05:16:49;12.80;;;7.47;;
20828;SDS011;10575;50.124;8.582;2023-01-08T05:19:14;13.88;;;8.40;;
20828;SDS011;10575;50.124;8.582;2023-01-08T05:21:40;10.77;;;7.32;;
20828;SDS011;10575;50.124;8.582;2023-01-08T05:24:06;11.55;;;8.00;;
20828;SDS011;10575;50.124;8.582;2023-01-08T05:26:33;13.13;;;7.13;;
20828;SDS011;10575;50.124;8.582;2023-01-08T05:28:58;12.73;;;7.03;;
20828;SDS011;10575;50.124;8.582;2023-01-08T05:31:24;11.27;;;7.15;;
20828;SDS011;10575;50.124;8.582;2023-01-08T05:33:50;12.00;;;7.47;;
20828;SDS011;10575;50.124;8.582;2023-01-08T05:36:15;11.95;;;7.55;;
20828;SDS011;10575;50.124;8.582;2023-01-08T05:38:41;14.93;;;7.57;;
20828;SDS011;10575;50.124;8.582;2023-01-08T05:41:07;13.18;;;8.40;;
20828;SDS011;10575;50.124;8.582;2023-01-08T05:43:33;15.20;;;7.72;;
20828;SDS011;10575;50.124;8.582;2023-01-08T05:45:59;15.43;;;7.97;;
20828;SDS011;10575;50.124;8.582;2023-01-08T05:48:27;14.15;;;8.25;;
20828;SDS011;10575;50.124;8.582;2023-01-08T05:50:53;12.98;;;8.45;;
20828;SDS011;10575;50.124;8.582;2023-01-08T05:53:19;12.38;;;7.78;;
20828;SDS011;10575;50.124;8.582;2023-01-08T05:55:45;12.25;;;8.02;;
20828;SDS011;10575;50.124;8.582;2023-01-08T05:58:10;11.68;;;7.93;;
20828;SDS011;10575;50.124;8.582;2023-01-08T06:00:36;13.18;;;7.90;;
20828;SDS011;10575;50.124;8.582;2023-01-08T06:03:02;15.70;;;7.47;;
20828;SDS011;10575;50.124;8.582;2023-01-08T06:05:31;12.38;;;7.70;;
20828;SDS011;10575;50.124;8.582;2023-01-08T06:07:58;12.45;;;7.88;;
20828;SDS011;10575;50.124;8.582;2023-01-08T06:10:24;11.25;;;7.75;;
20828;SDS011;10575;50.124;8.582;2023-01-08T06:12:49;10.55;;;7.10;;
20828;SDS011;10575;50.124;8.582;2023-01-08T06:15:15;10.85;;;7.70;;
20828;SDS011;10575;50.124;8.582;2023-01-08T06:17:41;10.95;;;7.28;;
20828;SDS011;10575;50.124;8.582;2023-01-08T06:20:06;10.55;;;6.55;;
20828;SDS011;10575;50.124;8.582;2023-01-08T06:22:33;9.80;;;6.53;;
20828;SDS011;10575;50.124;8.582;2023-01-08T06:24:59;11.82;;;7.18;;
20828;SDS011;10575;50.124;8.582;2023-01-08T06:27:24;10.90;;;7.15;;
20828;SDS011;10575;50.124;8.582;2023-01-08T06:29:50;9.95;;;6.65;;
20828;SDS011;10575;50.124;8.582;2023-01-08T06:32:15;9.20;;;6.85;;
20828;SDS011;10575;50.124;8.582;2023-01-08T06:34:41;8.60;;;6.40;;
20828;SDS011;10575;50.124;8.582;2023-01-08T06:37:06;9.00;;;6.55;;
20828;SDS011;10575;50.124;8.582;2023-01-08T06:39:32;11.40;;;7.10;;
20828;SDS011;10575;50.124;8.582;2023-01-08T06:41:57;9.80;;;6.78;;
20828;SDS011;10575;50.124;8.582;2023-01-08T06:44:23;9.95;;;6.35;;
20828;SDS011;10575;50.124;8.582;2023-01-08T06:46:49;11.52;;;6.80;;
20828;SDS011;10575;50.124;8.582;2023-01-08T06:49:15;8.95;;;6.40;;
20828;SDS011;10575;50.124;8.582;2023-01-08T06:51:41;11.07;;;6.80;;
20828;SDS011;10575;50.124;8.582;2023-01-08T06:54:07;9.98;;;6.40;;
20828;SDS011;10575;50.124;8.582;2023-01-08T06:56:32;9.02;;;6.40;;
20828;SDS011;10575;50.124;8.582;2023-01-08T06:58:57;9.93;;;6.53;;
20828;SDS011;10575;50.124;8.582;2023-01-08T07:01:23;11.00;;;6.18;;
20828;SDS011;10575;50.124;8.582;2023-01-08T07:03:48;9.63;;;6.43;;
20828;SDS011;10575;50.124;8.582;2023-01-08T07:06:14;11.27;;;5.93;;
20828;SDS011;10575;50.124;8.582;2023-01-08T07:08:42;11.68;;;6.25;;
20828;SDS011;10575;50.124;8.582;2023-01-08T07:11:08;9.75;;;6.55;;
20828;SDS011;10575;50.124;8.582;2023-01-08T07:13:33;10.95;;;6.30;;
20828;SDS011;10575;50.124;8.582;2023-01-08T07:16:09;10.95;;;6.28;;
20828;SDS011;10575;50.124;8.582;2023-01-08T07:18:36;8.85;;;6.13;;
20828;SDS011;10575;50.124;8.582;2023-01-08T07:21:03;9.43;;;6.05;;
20828;SDS011;10575;50.124;8.582;2023-01-08T07:23:30;9.70;;;6.10;;
20828;SDS011;10575;50.124;8.582;2023-01-08T07:25:58;9.85;;;6.10;;
20828;SDS011;10575;50.124;8.582;2023-01-08T07:28:25;9.55;;;5.88;;
20828;SDS011;10575;50.124;8.582;2023-01-08T07:30:50;10.85;;;6.10;;
20828;SDS011;10575;50.124;8.582;2023-01-08T07:33:16;10.18;;;5.70;;
20828;SDS011;10575;50.124;8.582;2023-01-08T07:35:41;10.95;;;6.05;;
20828;SDS011;10575;50.124;8.582;2023-01-08T07:38:07;11.00;;;5.97;;
20828;SDS011;10575;50.124;8.582;2023-01-08T07:40:32;11.55;;;6.28;;
20828;SDS011;10575;50.124;8.582;2023-01-08T07:43:02;8.23;;;5.72;;
20828;SDS011;10575;50.124;8.582;2023-01-08T07:45:28;8.30;;;4.95;;
20828;SDS011;10575;50.124;8.582;2023-01-08T07:47:58;7.60;;;5.13;;
20828;SDS011;10575;50.124;8.582;2023-01-08T07:50:24;8.27;;;5.15;;
20828;SDS011;10575;50.124;8.582;2023-01-08T07:52:51;8.23;;;5.57;;
20828;SDS011;10575;50.124;8.582;2023-01-08T07:55:16;7.75;;;5.45;;
20828;SDS011;10575;50.124;8.582;2023-01-08T07:57:42;8.77;;;5.05;;
20828;SDS011;10575;50.124;8.582;2023-01-08T08:00:07;9.13;;;5.30;;
20828;SDS011;10575;50.124;8.582;2023-01-08T08:02:33;7.88;;;5.57;;
20828;SDS011;10575;50.124;8.582;2023-01-08T08:04:59;9.55;;;5.70;;
20828;SDS011;10575;50.124;8.582;2023-01-08T08:07:25;9.20;;;5.47;;
20828;SDS011;10575;50.124;8.582;2023-01-08T08:09:51;10.77;;;5.82;;
20828;SDS011;10575;50.124;8.582;2023-01-08T08:12:16;8.27;;;5.07;;
20828;SDS011;10575;50.124;8.582;2023-01-08T08:14:42;9.73;;;5.13;;
20828;SDS011;10575;50.124;8.582;2023-01-08T08:17:07;8.80;;;5.13;;
20828;SDS011;10575;50.124;8.582;2023-01-08T08:19:33;9.88;;;5.55;;
20828;SDS011;10575;50.124;8.582;2023-01-08T08:21:58;6.97;;;4.78;;
20828;SDS011;10575;50.124;8.582;2023-01-08T08:24:24;9.27;;;5.30;;
20828;SDS011;10575;50.124;8.582;2023-01-08T08:26:49;7.75;;;5.30;;
20828;SDS011;10575;50.124;8.582;2023-01-08T08:29:15;9.15;;;5.03;;
20828;SDS011;10575;50.124;8.582;2023-01-08T08:31:40;9.05;;;6.10;;
20828;SDS011;10575;50.124;8.582;2023-01-08T08:34:06;6.88;;;4.72;;
20828;SDS011;10575;50.124;8.582;2023-01-08T08:36:32;9.57;;;5.20;;
20828;SDS011;10575;50.124;8.582;2023-01-08T08:38:58;9.25;;;6.25;;
20828;SDS011;10575;50.124;8.582;2023-01-08T08:41:25;12.35;;;8.98;;
20828;SDS011;10575;50.124;8.582;2023-01-08T08:43:51;9.73;;;6.30;;
20828;SDS011;10575;50.124;8.582;2023-01-08T08:46:17;12.00;;;7.78;;
20828;SDS011;10575;50.124;8.582;2023-01-08T08:48:45;10.85;;;8.13;;
20828;SDS011;10575;50.124;8.582;2023-01-08T08:51:11;8.15;;;5.57;;
20828;SDS011;10575;50.124;8.582;2023-01-08T08:53:37;10.73;;;7.78;;
20828;SDS011;10575;50.124;8.582;2023-01-08T08:56:03;16.50;;;11.35;;
20828;SDS011;10575;50.124;8.582;2023-01-08T08:58:29;9.65;;;6.53;;
20828;SDS011;10575;50.124;8.582;2023-01-08T09:00:54;18.58;;;12.63;;
20828;SDS011;10575;50.124;8.582;2023-01-08T09:03:24;10.45;;;6.55;;
20828;SDS011;10575;50.124;8.582;2023-01-08T09:05:50;13.27;;;8.73;;
20828;SDS011;10575;50.124;8.582;2023-01-08T09:08:15;27.50;;;17.08;;
20828;SDS011;10575;50.124;8.582;2023-01-08T09:10:41;36.60;;;22.63;;
20828;SDS011;10575;50.124;8.582;2023-01-08T09:13:07;24.75;;;16.10;;
20828;SDS011;10575;50.124;8.582;2023-01-08T09:15:33;23.23;;;13.70;;
20828;SDS011;10575;50.124;8.582;2023-01-08T09:18:00;29.92;;;16.67;;
20828;SDS011;10575;50.124;8.582;2023-01-08T09:20:26;31.80;;;18.23;;
20828;SDS011;10575;50.124;8.582;2023-01-08T09:22:51;17.65;;;11.07;;
20828;SDS011;10575;50.124;8.582;2023-01-08T09:25:17;16.77;;;10.85;;
20828;SDS011;10575;50.124;8.582;2023-01-08T09:27:43;16.77;;;11.60;;
20828;SDS011;10575;50.124;8.582;2023-01-08T09:30:08;13.48;;;8.82;;
20828;SDS011;10575;50.124;8.582;2023-01-08T09:32:35;24.60;;;17.15;;
20828;SDS011;10575;50.124;8.582;2023-01-08T09:35:02;14.60;;;9.90;;
20828;SDS011;10575;50.124;8.582;2023-01-08T09:37:28;22.48;;;16.67;;
20828;SDS011;10575;50.124;8.582;2023-01-08T09:39:54;18.23;;;11.60;;
20828;SDS011;10575;50.124;8.582;2023-01-08T09:42:20;18.45;;;11.82;;
20828;SDS011;10575;50.124;8.582;2023-01-08T09:44:51;10.82;;;5.72;;
20828;SDS011;10575;50.124;8.582;2023-01-08T09:47:26;30.00;;;20.30;;
20828;SDS011;10575;50.124;8.582;2023-01-08T09:50:01;32.53;;;22.02;;
20828;SDS011;10575;50.124;8.582;2023-01-08T09:52:30;48.17;;;32.17;;
20828;SDS011;10575;50.124;8.582;2023-01-08T09:54:56;12.73;;;7.75;;
20828;SDS011;10575;50.124;8.582;2023-01-08T09:57:22;11.38;;;6.25;;
20828;SDS011;10575;50.124;8.582;2023-01-08T09:59:48;14.43;;;10.40;;
20828;SDS011;10575;50.124;8.582;2023-01-08T10:02:17;18.42;;;12.13;;
20828;SDS011;10575;50.124;8.582;2023-01-08T10:04:57;18.42;;;10.35;;
20828;SDS011;10575;50.124;8.582;2023-01-08T10:07:25;13.93;;;8.55;;
20828;SDS011;10575;50.124;8.582;2023-01-08T10:09:52;13.38;;;10.13;;
20828;SDS011;10575;50.124;8.582;2023-01-08T10:20:15;17.70;;;12.02;;
20828;SDS011;10575;50.124;8.582;2023-01-08T10:22:43;8.52;;;6.38;;
20828;SDS011;10575;50.124;8.582;2023-01-08T10:25:11;11.48;;;7.97;;
20828;SDS011;10575;50.124;8.582;2023-01-08T10:27:49;12.32;;;5.85;;
20828;SDS011;10575;50.124;8.582;2023-01-08T10:33:20;8.25;;;6.20;;
20828;SDS011;10575;50.124;8.582;2023-01-08T10:35:56;9.32;;;5.57;;
20828;SDS011;10575;50.124;8.582;2023-01-08T10:38:29;8.07;;;5.75;;
20828;SDS011;10575;50.124;8.582;2023-01-08T10:40:57;11.05;;;7.20;;
20828;SDS011;10575;50.124;8.582;2023-01-08T10:43:28;9.23;;;7.20;;
20828;SDS011;10575;50.124;8.582;2023-01-08T10:45:58;8.88;;;6.53;;
20828;SDS011;10575;50.124;8.582;2023-01-08T10:48:29;7.82;;;6.20;;
20828;SDS011;10575;50.124;8.582;2023-01-08T10:51:05;10.18;;;6.68;;
20828;SDS011;10575;50.124;8.582;2023-01-08T10:53:37;15.32;;;8.40;;
20828;SDS011;10575;50.124;8.582;2023-01-08T10:56:05;13.55;;;6.38;;
20828;SDS011;10575;50.124;8.582;2023-01-08T10:58:39;8.30;;;6.70;;
20828;SDS011;10575;50.124;8.582;2023-01-08T11:01:10;10.38;;;7.40;;
20828;SDS011;10575;50.124;8.582;2023-01-08T11:03:41;8.95;;;6.38;;
20828;SDS011;10575;50.124;8.582;2023-01-08T11:06:11;10.55;;;7.63;;
20828;SDS011;10575;50.124;8.582;2023-01-08T11:08:46;11.15;;;7.22;;
20828;SDS011;10575;50.124;8.582;2023-01-08T11:11:14;12.52;;;9.13;;
20828;SDS011;10575;50.124;8.582;2023-01-08T11:13:47;10.07;;;7.10;;
20828;SDS011;10575;50.124;8.582;2023-01-08T11:16:20;9.45;;;7.20;;
20828;SDS011;10575;50.124;8.582;2023-01-08T11:18:48;10.90;;;7.18;;
20828;SDS011;10575;50.124;8.582;2023-01-08T11:21:21;10.50;;;6.70;;
20828;SDS011;10575;50.124;8.582;2023-01-08T11:24:14;8.93;;;6.10;;
20828;SDS011;10575;50.124;8.582;2023-01-08T11:26:53;7.70;;;5.80;;
20828;SDS011;10575;50.124;8.582;2023-01-08T11:29:27;8.88;;;5.47;;
20828;SDS011;10575;50.124;8.582;2023-01-08T11:32:04;19.80;;;13.27;;
20828;SDS011;10575;50.124;8.582;2023-01-08T11:37:28;25.98;;;15.55;;
20828;SDS011;10575;50.124;8.582;2023-01-08T11:39:57;25.63;;;13.85;;
20828;SDS011;10575;50.124;8.582;2023-01-08T11:59:13;30.90;;;18.50;;
20828;SDS011;10575;50.124;8.582;2023-01-08T12:01:54;18.13;;;11.15;;
20828;SDS011;10575;50.124;8.582;2023-01-08T12:04:41;20.85;;;15.40;;
20828;SDS011;10575;50.124;8.582;2023-01-08T12:07:15;14.95;;;10.88;;
20828;SDS011;10575;50.124;8.582;2023-01-08T12:09:59;6.80;;;4.40;;
20828;SDS011;10575;50.124;8.582;2023-01-08T12:12:56;5.38;;;3.88;;
20828;SDS011;10575;50.124;8.582;2023-01-08T12:15:38;14.32;;;7.10;;
20828;SDS011;10575;50.124;8.582;2023-01-08T12:34:54;46.47;;;30.63;;
20828;SDS011;10575;50.124;8.582;2023-01-08T12:37:58;15.52;;;11.38;;
20828;SDS011;10575;50.124;8.582;2023-01-08T12:40:23;9.75;;;6.82;;
20828;SDS011;10575;50.124;8.582;2023-01-08T12:42:56;7.53;;;4.88;;
20828;SDS011;10575;50.124;8.582;2023-01-08T12:45:28;10.18;;;4.90;;
20828;SDS011;10575;50.124;8.582;2023-01-08T12:48:01;9.55;;;6.30;;
20828;SDS011;10575;50.124;8.582;2023-01-08T12:53:13;15.70;;;11.75;;
20828;SDS011;10575;50.124;8.582;2023-01-08T12:59:17;12.75;;;7.35;;
20828;SDS011;10575;50.124;8.582;2023-01-08T13:04:54;20.52;;;14.50;;
20828;SDS011;10575;50.124;8.582;2023-01-08T13:07:22;6.32;;;4.65;;
20828;SDS011;10575;50.124;8.582;2023-01-08T13:10:02;5.75;;;4.07;;
20828;SDS011;10575;50.124;8.582;2023-01-08T13:12:33;4.88;;;2.92;;
20828;SDS011;10575;50.124;8.582;2023-01-08T13:15:02;6.88;;;4.13;;
20828;SDS011;10575;50.124;8.582;2023-01-08T13:17:28;5.70;;;2.85;;
20828;SDS011;10575;50.124;8.582;2023-01-08T13:19:57;7.10;;;4.28;;
20828;SDS011;10575;50.124;8.582;2023-01-08T13:22:29;5.47;;;3.38;;
20828;SDS011;10575;50.124;8.582;2023-01-08T13:25:08;5.78;;;3.17;;
20828;SDS011;10575;50.124;8.582;2023-01-08T13:27:43;4.70;;;3.25;;
20828;SDS011;10575;50.124;8.582;2023-01-08T13:30:53;10.98;;;6.55;;
20828;SDS011;10575;50.124;8.582;2023-01-08T13:33:03;8.50;;;6.05;;
20828;SDS011;10575;50.124;8.582;2023-01-08T13:36:11;17.83;;;11.75;;
20828;SDS011;10575;50.124;8.582;2023-01-08T13:38:38;6.15;;;4.35;;
20828;SDS011;10575;50.124;8.582;2023-01-08T13:41:04;3.63;;;2.42;;
20828;SDS011;10575;50.124;8.582;2023-01-08T13:43:47;2.95;;;2.42;;
20828;SDS011;10575;50.124;8.582;2023-01-08T13:46:16;16.20;;;8.32;;
20828;SDS011;10575;50.124;8.582;2023-01-08T13:53:57;3.38;;;2.25;;
20828;SDS011;10575;50.124;8.582;2023-01-08T13:56:39;3.75;;;2.20;;
20828;SDS011;10575;50.124;8.582;2023-01-08T13:59:05;3.65;;;3.25;;
20828;SDS011;10575;50.124;8.582;2023-01-08T14:02:02;7.75;;;5.00;;
20828;SDS011;10575;50.124;8.582;2023-01-08T14:04:28;6.75;;;3.45;;
20828;SDS011;10575;50.124;8.582;2023-01-08T14:07:04;4.43;;;2.25;;
20828;SDS011;10575;50.124;8.582;2023-01-08T14:09:38;4.82;;;3.25;;
20828;SDS011;10575;50.124;8.582;2023-01-08T14:12:04;6.93;;;4.60;;
20828;SDS011;10575;50.124;8.582;2023-01-08T14:14:30;13.75;;;7.68;;
20828;SDS011;10575;50.124;8.582;2023-01-08T14:16:55;5.07;;;3.45;;
20828;SDS011;10575;50.124;8.582;2023-01-08T14:19:23;5.40;;;3.88;;
20828;SDS011;10575;50.124;8.582;2023-01-08T14:21:51;2.78;;;2.28;;
20828;SDS011;10575;50.124;8.582;2023-01-08T14:24:18;4.53;;;3.22;;
20828;SDS011;10575;50.124;8.582;2023-01-08T14:26:53;3.67;;;2.72;;
20828;SDS011;10575;50.124;8.582;2023-01-08T14:29:23;9.85;;;6.88;;
20828;SDS011;10575;50.124;8.582;2023-01-08T14:31:51;5.53;;;3.40;;
20828;SDS011;10575;50.124;8.582;2023-01-08T14:34:22;5.40;;;2.70;;
20828;SDS011;10575;50.124;8.582;2023-01-08T14:36:51;4.63;;;2.75;;
20828;SDS011;10575;50.124;8.582;2023-01-08T14:39:25;4.60;;;3.15;;
20828;SDS011;10575;50.124;8.582;2023-01-08T14:42:00;3.58;;;2.40;;
20828;SDS011;10575;50.124;8.582;2023-01-08T14:45:06;13.30;;;10.20;;
20828;SDS011;10575;50.124;8.582;2023-01-08T14:47:52;5.72;;;3.45;;
20828;SDS011;10575;50.124;8.582;2023-01-08T14:50:22;2.92;;;2.42;;
20828;SDS011;10575;50.124;8.582;2023-01-08T14:52:53;7.05;;;3.15;;
20828;SDS011;10575;50.124;8.582;2023-01-08T14:55:24;3.63;;;2.88;;
20828;SDS011;10575;50.124;8.582;2023-01-08T14:57:52;7.07;;;2.75;;
20828;SDS011;10575;50.124;8.582;2023-01-08T15:00:20;6.25;;;4.28;;
20828;SDS011;10575;50.124;8.582;2023-01-08T15:02:51;8.50;;;6.57;;
20828;SDS011;10575;50.124;8.582;2023-01-08T15:05:18;6.32;;;3.20;;
20828;SDS011;10575;50.124;8.582;2023-01-08T15:10:40;3.95;;;2.80;;
20828;SDS011;10575;50.124;8.582;2023-01-08T15:13:20;9.52;;;5.45;;
20828;SDS011;10575;50.124;8.582;2023-01-08T15:15:52;10.65;;;6.20;;
20828;SDS011;10575;50.124;8.582;2023-01-08T15:18:22;7.53;;;4.00;;
20828;SDS011;10575;50.124;8.582;2023-01-08T15:20:48;6.25;;;2.58;;
20828;SDS011;10575;50.124;8.582;2023-01-08T15:23:34;8.05;;;5.47;;
20828;SDS011;10575;50.124;8.582;2023-01-08T15:26:08;4.72;;;2.97;;
20828;SDS011;10575;50.124;8.582;2023-01-08T15:28:35;8.80;;;4.95;;
20828;SDS011;10575;50.124;8.582;2023-01-08T15:31:00;4.72;;;3.33;;
20828;SDS011;10575;50.124;8.582;2023-01-08T15:33:26;11.75;;;7.68;;
20828;SDS011;10575;50.124;8.582;2023-01-08T15:35:52;9.30;;;5.65;;
20828;SDS011;10575;50.124;8.582;2023-01-08T15:38:18;4.47;;;3.00;;
20828;SDS011;10575;50.124;8.582;2023-01-08T15:40:48;11.18;;;5.38;;
20828;SDS011;10575;50.124;8.582;2023-01-08T15:43:15;5.35;;;3.20;;
20828;SDS011;10575;50.124;8.582;2023-01-08T15:45:45;5.97;;;4.30;;
20828;SDS011;10575;50.124;8.582;2023-01-08T15:48:12;4.78;;;3.20;;
20828;SDS011;10575;50.124;8.582;2023-01-08T15:50:39;6.07;;;4.50;;
20828;SDS011;10575;50.124;8.582;2023-01-08T15:53:16;6.88;;;5.20;;
20828;SDS011;10575;50.124;8.582;2023-01-08T15:55:46;5.13;;;3.53;;
20828;SDS011;10575;50.124;8.582;2023-01-08T15:58:12;5.65;;;3.28;;
20828;SDS011;10575;50.124;8.582;2023-01-08T16:00:38;4.28;;;3.13;;
20828;SDS011;10575;50.124;8.582;2023-01-08T16:03:05;4.32;;;3.08;;
20828;SDS011;10575;50.124;8.582;2023-01-08T16:05:31;4.65;;;3.28;;